Terminal Aerodrome Forecast
Issued by NWS Jackson, KY

Home | Current Version | Previous Version | Text Only | Print | Product List | Glossary On
Versions: 1 2 3 4 5 6 7 8 9 10 11 12 13 14 15 16 17 18 19 20 21
209
FTUS43 KJKL 010421 AAD
TAFJKL
TAF AMD
KJKL 010421Z 0104/0124 VRB03KT 2SM -SHRA VCTS BKN050CB
      TEMPO 0104/0108 1/4SM +SHRA FG SCT002 BKN010
     FM011000 VRB03KT 3SM -SHRA OVC025
     FM011300 VRB03KT P6SM VCTS BKN045CB=

USA.gov is the U.S. government's official web portal to all federal, state and local government web resources and services.